Harbville, South Carolina
Current Conditions -  °F | °C
As of 12:53 AM on Saturday 29 Nov 2014 (Local Time) from KSAV Reporting Station
Clear Clear  
Wind Chill: 37°   Ceiling: Unl
Heat Index: 37°   Visibility: 10mi
Dew Point: 32°   Wind: 0mph
Humidity: 82%   Direction: NA
Pressure: 30.33"   Gusts: NA
Location:  32.2576°N, 81.057°W
Report Text: KSAV 290553Z AUTO 00000KT 10SM CLR 03/00 A3033 RMK AO2 SLP271 T00280000 10067 20017 58007 TSNO
Loading
Personal Weather Stations






























Interactive Weather Map New forecast layout! Learn more

10-Day Weather Forecast

Advertisements
Track Severe Weather on mobile